Time;durP1;ratioP1;P1;durP2;ratioP2;P2;SDS_P1;SDS_P2;PMS_P1;PMS_P2;Temp;Humidity;BMP_temperature;BMP_pressure;BME280_temperature;BME280_humidity;BME280_pressure;Samples;Min_cycle;Max_cycle;Signal;HPM_P1;HPM_P2
2022/03/22 00:02:23;;;;;;;46.05;33.35;;;;;;;9.94;67.75;102778.03;3575288;40;20056;-66
2022/03/22 00:04:49;;;;;;;48.65;33.67;;;;;;;9.63;67.26;102729.66;3574213;40;20051;-63
2022/03/22 00:07:15;;;;;;;46.00;32.38;;;;;;;9.92;67.32;102779.00;3576009;40;20048;-64
2022/03/22 00:09:40;;;;;;;46.30;31.60;;;;;;;8.18;67.43;102489.38;3578176;40;20059;-64
2022/03/22 00:12:07;;;;;;;43.65;32.13;;;;;;;9.85;67.46;102782.78;3577587;40;20044;-65
2022/03/22 00:14:33;;;;;;;120.10;72.47;;;;;;;9.81;68.21;102789.19;3578674;40;20045;-65
2022/03/22 00:16:59;;;;;;;76.65;49.00;;;;;;;9.74;68.30;102780.41;3578001;40;20063;-66
2022/03/22 00:19:24;;;;;;;52.42;36.45;;;;;;;9.69;67.60;102782.31;3579400;40;20065;-65
2022/03/22 00:21:50;;;;;;;49.03;33.53;;;;;;;9.44;67.91;102752.56;3585608;40;20063;-65
2022/03/22 00:24:16;;;;;;;46.15;33.55;;;;;;;9.58;68.00;102779.94;3577512;40;20396;-65
2022/03/22 00:26:41;;;;;;;46.00;31.95;;;;;;;9.63;68.33;102782.47;3579335;40;20064;-65
2022/03/22 00:29:07;;;;;;;50.72;33.10;;;;;;;9.62;68.54;102792.34;3577852;40;20393;-65
2022/03/22 00:31:33;;;;;;;45.15;32.22;;;;;;;9.61;68.63;102789.69;3580537;40;20056;-65
2022/03/22 00:33:59;;;;;;;45.80;33.78;;;;;;;9.59;68.22;102791.56;3577770;40;20063;-64
2022/03/22 00:36:24;;;;;;;47.70;32.92;;;;;;;9.58;68.10;102788.00;3578899;40;20064;-65
2022/03/22 00:38:50;;;;;;;50.67;32.13;;;;;;;9.55;68.33;102801.50;3581942;40;20097;-64
2022/03/22 00:41:19;;;;;;;42.78;31.90;;;;;;;9.51;68.78;102794.41;3575827;40;20399;-65
2022/03/22 00:43:46;;;;;;;46.42;33.25;;;;;;;9.41;68.92;102780.34;3580933;40;20343;-66
2022/03/22 00:46:12;;;;;;;42.72;32.30;;;;;;;9.46;68.78;102797.22;3580133;40;20048;-64
2022/03/22 00:48:38;;;;;;;50.78;32.35;;;;;;;9.18;68.53;102748.75;3577864;40;20060;-65
2022/03/22 00:51:04;;;;;;;47.05;33.80;;;;;;;9.44;68.08;102799.06;3577273;39;20084;-67
2022/03/22 00:53:30;;;;;;;42.90;31.67;;;;;;;8.83;68.72;102695.97;3575160;40;20055;-65
2022/03/22 00:55:56;;;;;;;47.13;32.08;;;;;;;9.41;68.28;102793.78;3576421;40;20056;-65
2022/03/22 00:58:21;;;;;;;45.13;31.20;;;;;;;9.37;68.72;102797.47;3576023;40;20063;-66
2022/03/22 01:00:48;;;;;;;46.05;31.88;;;;;;;9.37;68.09;102801.94;3577214;40;20375;-65
2022/03/22 01:03:14;;;;;;;44.67;31.15;;;;;;;9.35;68.17;102801.09;3575403;40;20053;-64
2022/03/22 01:05:40;;;;;;;45.53;31.65;;;;;;;9.29;68.79;102794.06;3580029;40;20051;-65
2022/03/22 01:08:10;;;;;;;46.30;31.92;;;;;;;8.84;68.19;102716.50;3579816;40;20380;-65
2022/03/22 01:10:41;;;;;;;43.67;31.40;;;;;;;9.32;68.70;102809.22;3577296;40;20052;-65
2022/03/22 01:13:08;;;;;;;48.25;32.28;;;;;;;9.27;69.09;102802.19;3577859;40;20047;-64
2022/03/22 01:15:36;;;;;;;47.30;33.47;;;;;;;9.28;69.06;102805.75;3580763;40;20118;-65
2022/03/22 01:18:07;;;;;;;45.25;31.63;;;;;;;9.24;69.24;102807.63;3577806;40;20060;-65
2022/03/22 01:20:36;;;;;;;46.00;31.45;;;;;;;9.24;69.25;102802.25;3580326;40;20056;-64
2022/03/22 01:23:07;;;;;;;46.22;31.60;;;;;;;9.23;69.33;102802.31;3576648;40;20068;-65
2022/03/22 01:25:34;;;;;;;44.53;30.83;;;;;;;9.14;69.51;102802.53;3579554;40;20485;-65
2022/03/22 01:28:07;;;;;;;43.42;30.13;;;;;;;9.15;69.16;102804.28;3577247;40;20052;-65
2022/03/22 01:30:34;;;;;;;42.03;30.02;;;;;;;9.12;69.53;102807.03;3576494;40;20085;-65
2022/03/22 01:33:00;;;;;;;38.90;30.23;;;;;;;9.05;69.13;102791.09;3576723;40;20389;-65
2022/03/22 01:35:27;;;;;;;51.03;30.30;;;;;;;9.07;69.03;102808.03;3575756;40;20069;-65
2022/03/22 01:37:55;;;;;;;42.92;29.92;;;;;;;8.60;69.57;102723.34;3576403;40;20057;-65
2022/03/22 01:40:25;;;;;;;41.15;29.38;;;;;;;8.83;69.65;102773.75;3577388;40;20056;-66
2022/03/22 01:42:53;;;;;;;40.95;30.27;;;;;;;9.03;69.19;102803.63;3576923;40;20056;-65
2022/03/22 01:45:19;;;;;;;45.60;30.98;;;;;;;8.77;69.17;102763.16;3575613;40;20119;-64
2022/03/22 01:47:47;;;;;;;44.53;28.63;;;;;;;8.98;69.21;102802.00;3577082;40;20386;-66
2022/03/22 01:50:19;;;;;;;44.08;29.15;;;;;;;8.94;68.66;102809.22;3578872;40;20056;-65
2022/03/22 01:52:45;;;;;;;42.22;29.27;;;;;;;8.93;68.77;102803.91;3580280;40;20648;-65
2022/03/22 01:55:17;;;;;;;43.60;28.55;;;;;;;8.92;68.47;102807.53;3575803;40;20342;-66
2022/03/22 01:57:44;;;;;;;42.20;27.85;;;;;;;8.88;69.02;102800.44;3576490;40;20048;-65
2022/03/22 02:00:18;;;;;;;39.92;28.23;;;;;;;8.72;68.38;102775.78;3578172;40;20397;-65
2022/03/22 02:05:51;;;;;;;36.22;25.45;;;;;;;8.94;67.72;102798.50;3575547;40;20131;-65
2022/03/22 02:08:24;;;;;;;34.97;24.85;;;;;;;8.75;68.18;102755.16;3575950;40;20056;-64
2022/03/22 02:10:50;;;;;;;32.63;23.30;;;;;;;9.00;67.57;102792.97;3574021;40;20055;-65
2022/03/22 02:13:16;;;;;;;37.00;24.27;;;;;;;9.03;68.45;102792.91;3574015;40;20057;-65
2022/03/22 02:15:48;;;;;;;38.97;24.42;;;;;;;9.08;67.89;102787.44;3579973;40;20045;-64
2022/03/22 02:18:15;;;;;;;39.70;23.83;;;;;;;9.10;67.88;102784.72;3579178;40;20500;-64
2022/03/22 02:20:41;;;;;;;31.38;23.48;;;;;;;9.07;67.36;102789.25;3576678;40;20048;-66
2022/03/22 02:23:48;;;;;;;33.97;23.45;;;;;;;9.03;67.33;102786.66;3575879;40;20049;-65
2022/03/22 02:26:14;;;;;;;39.45;22.67;;;;;;;9.01;68.15;102785.84;3575853;40;20044;-66
2022/03/22 02:28:41;;;;;;;30.55;22.73;;;;;;;8.98;68.43;102789.47;3574688;40;20291;-65
2022/03/22 02:31:08;;;;;;;32.47;23.25;;;;;;;8.96;68.12;102787.75;3575105;40;20048;-64
2022/03/22 02:33:33;;;;;;;31.35;22.65;;;;;;;8.92;68.56;102789.63;3575119;40;20052;-65
2022/03/22 02:35:59;;;;;;;33.40;24.10;;;;;;;8.91;68.95;102787.88;3575672;40;20295;-65
2022/03/22 02:38:24;;;;;;;33.85;24.17;;;;;;;8.87;69.18;102786.16;3576371;40;20107;-65
2022/03/22 02:40:50;;;;;;;30.52;22.52;;;;;;;8.86;68.21;102787.06;3576989;40;20085;-65
2022/03/22 02:43:17;;;;;;;33.22;23.30;;;;;;;8.85;68.74;102782.66;3577598;40;20335;-65
2022/03/22 02:45:42;;;;;;;31.08;22.13;;;;;;;8.84;67.86;102786.22;3574394;40;20394;-65
2022/03/22 02:48:09;;;;;;;31.35;23.20;;;;;;;8.79;68.37;102786.34;3575339;40;20045;-65
2022/03/22 02:50:34;;;;;;;32.25;23.23;;;;;;;8.77;67.42;102784.59;3575151;40;20088;-64
2022/03/22 02:53:03;;;;;;;34.50;22.98;;;;;;;8.71;67.71;102779.38;3576087;40;20087;-64
2022/03/22 02:55:28;;;;;;;31.75;23.10;;;;;;;8.67;67.82;102783.06;3574961;40;20049;-65
2022/03/22 02:57:54;;;;;;;30.48;22.27;;;;;;;8.62;67.68;102784.94;3577340;40;20306;-65
2022/03/22 03:00:20;;;;;;;30.80;21.60;;;;;;;8.58;68.20;102789.50;3574713;40;20057;-64
2022/03/22 03:02:53;;;;;;;32.17;22.42;;;;;;;8.32;68.36;102755.19;3578028;40;20372;-65
2022/03/22 03:05:21;;;;;;;31.45;21.95;;;;;;;8.35;69.30;102765.84;3574849;40;20046;-64
2022/03/22 03:07:47;;;;;;;27.95;21.75;;;;;;;8.42;70.04;102788.06;3577366;40;20051;-64
2022/03/22 03:10:13;;;;;;;34.22;23.48;;;;;;;8.21;70.91;102767.91;3575359;40;20098;-65
2022/03/22 03:12:39;;;;;;;33.72;22.58;;;;;;;8.29;70.38;102799.00;3575658;40;20070;-65
2022/03/22 03:15:11;;;;;;;31.95;23.75;;;;;;;8.23;70.00;102788.41;3575564;40;20053;-66
2022/03/22 03:17:38;;;;;;;34.28;23.20;;;;;;;8.17;70.46;102787.66;3575359;40;20049;-65
2022/03/22 03:20:07;;;;;;;33.17;22.88;;;;;;;8.10;70.33;102793.13;3578658;40;20055;-64
2022/03/22 03:22:32;;;;;;;33.30;23.17;;;;;;;8.05;70.51;102795.00;3577173;40;20053;-65
2022/03/22 03:24:59;;;;;;;33.05;23.95;;;;;;;8.01;70.37;102793.31;3575055;40;20055;-65
2022/03/22 03:27:25;;;;;;;37.47;24.25;;;;;;;7.98;70.33;102790.69;3574752;40;20099;-65
2022/03/22 03:29:50;;;;;;;34.17;23.25;;;;;;;7.69;70.84;102753.78;3576554;40;20048;-65
2022/03/22 03:32:17;;;;;;;31.95;24.17;;;;;;;7.95;71.05;102798.78;3574994;40;20444;-65
2022/03/22 03:34:42;;;;;;;34.22;23.13;;;;;;;7.93;71.12;102789.91;3575542;40;20066;-64
2022/03/22 03:37:08;;;;;;;32.45;22.90;;;;;;;7.97;71.14;102796.09;3576057;40;20060;-64
2022/03/22 03:39:34;;;;;;;34.67;24.02;;;;;;;7.98;70.62;102803.22;3576734;40;20056;-65
2022/03/22 03:42:02;;;;;;;37.83;24.02;;;;;;;7.93;70.61;102797.94;3573811;40;20069;-65
2022/03/22 03:47:18;;;;;;;33.42;23.92;;;;;;;7.87;71.29;102816.81;3578362;40;20290;-65
2022/03/22 03:49:48;;;;;;;34.05;23.23;;;;;;;7.82;71.52;102813.31;3573705;40;20052;-67
2022/03/22 03:52:22;;;;;;;34.25;23.85;;;;;;;7.77;71.15;102812.50;3576513;40;20083;-63
2022/03/22 03:54:48;;;;;;;38.00;24.55;;;;;;;7.75;71.28;102814.34;3575843;40;20422;-63
2022/03/22 03:57:15;;;;;;;31.73;22.45;;;;;;;7.53;71.67;102785.28;3574739;40;20063;-63
2022/03/22 03:59:41;;;;;;;34.42;24.50;;;;;;;7.60;71.57;102811.03;3575689;40;20373;-63
2022/03/22 04:02:08;;;;;;;33.30;23.52;;;;;;;7.59;71.80;102813.75;3574792;40;20290;-63
2022/03/22 04:04:36;;;;;;;36.72;24.02;;;;;;;7.62;71.73;102822.59;3575289;40;20056;-63
2022/03/22 04:07:08;;;;;;;32.53;23.75;;;;;;;7.60;72.40;102832.44;3576664;40;20045;-63
2022/03/22 04:09:35;;;;;;;31.77;23.25;;;;;;;7.59;71.76;102833.34;3574452;40;20061;-62
2022/03/22 04:12:01;;;;;;;33.83;23.60;;;;;;;7.60;72.74;102823.53;3574731;40;20059;-62
2022/03/22 04:14:27;;;;;;;33.53;23.15;;;;;;;7.59;72.33;102824.44;3574362;40;20061;-63
2022/03/22 04:16:56;;;;;;;33.67;22.67;;;;;;;7.58;72.26;102826.25;3574734;40;20284;-63
2022/03/22 04:19:26;;;;;;;33.92;22.98;;;;;;;7.58;71.57;102831.59;3575447;40;20106;-63
2022/03/22 04:21:52;;;;;;;31.92;22.30;;;;;;;7.45;71.30;102803.25;3640764;23;20048;-62
2022/03/22 04:24:21;;;;;;;29.98;22.25;;;;;;;7.57;70.92;102828.94;3591753;40;20064;-63
2022/03/22 04:26:47;;;;;;;30.02;21.50;;;;;;;7.54;70.79;102827.19;3589455;39;20056;-63
2022/03/22 04:34:46;;;;;;;29.77;20.63;;;;;;;7.47;69.86;102822.84;3578141;40;20130;-63
2022/03/22 04:37:14;;;;;;;31.33;22.13;;;;;;;7.45;69.90;102821.97;3576152;40;20064;-63
2022/03/22 04:39:44;;;;;;;30.63;21.08;;;;;;;7.43;70.48;102822.03;3578443;40;20115;-63
2022/03/22 04:42:11;;;;;;;31.23;21.52;;;;;;;7.42;70.47;102824.72;3577183;40;20399;-63
2022/03/22 04:44:37;;;;;;;30.15;21.95;;;;;;;7.40;70.18;102824.75;3578260;40;20055;-62
2022/03/22 04:47:03;;;;;;;30.70;21.25;;;;;;;7.40;70.71;102821.19;3576578;40;20056;-62
2022/03/22 04:49:32;;;;;;;31.15;21.52;;;;;;;7.39;71.47;102835.47;3576704;40;20053;-62
2022/03/22 04:57:26;;;;;;;;;;;;;;;7.29;71.68;102832.06;3578774;40;20054;-63
2022/03/22 04:59:54;;;;;;;31.73;21.55;;;;;;;7.30;71.58;102838.31;3578291;40;19952;-63
2022/03/22 05:02:20;;;;;;;29.77;20.60;;;;;;;7.28;70.99;102837.44;3576564;40;20056;-62
2022/03/22 05:04:45;;;;;;;28.58;21.52;;;;;;;7.28;71.36;102840.13;3575374;40;20071;-62
2022/03/22 05:07:11;;;;;;;29.20;21.50;;;;;;;7.25;71.15;102838.38;3581945;40;20306;-62
2022/03/22 05:09:37;;;;;;;28.60;20.73;;;;;;;7.25;71.04;102842.84;3579436;40;20056;-62
2022/03/22 05:12:04;;;;;;;29.85;21.10;;;;;;;7.16;70.60;102830.47;3579816;40;20126;-62
2022/03/22 05:14:29;;;;;;;28.88;21.25;;;;;;;7.06;70.40;102818.16;3578290;40;20139;-62
2022/03/22 05:16:58;;;;;;;27.83;21.52;;;;;;;7.20;70.65;102846.47;3577971;40;20098;-62
2022/03/22 05:19:25;;;;;;;33.03;21.65;;;;;;;7.19;71.37;102854.50;3576093;40;20076;-62
2022/03/22 05:21:52;;;;;;;30.65;22.08;;;;;;;7.16;71.66;102859.91;3579287;40;20067;-62
2022/03/22 05:24:17;;;;;;;33.83;21.42;;;;;;;7.10;72.04;102847.50;3581050;40;20044;-62
2022/03/22 05:26:45;;;;;;;29.55;21.92;;;;;;;7.12;71.96;102851.03;3582780;40;20295;-62
2022/03/22 05:29:10;;;;;;;32.55;22.25;;;;;;;7.10;72.43;102858.19;3578789;40;20052;-62
2022/03/22 05:31:36;;;;;;;33.40;20.73;;;;;;;7.10;71.88;102863.53;3580485;40;20041;-62
2022/03/22 05:34:03;;;;;;;33.33;23.13;;;;;;;7.09;71.76;102864.47;3579755;40;20071;-62
2022/03/22 05:36:28;;;;;;;32.83;21.88;;;;;;;6.98;71.38;102847.72;3579335;40;20126;-62
2022/03/22 05:38:54;;;;;;;32.80;21.90;;;;;;;7.08;71.29;102870.72;3577859;40;20061;-62
2022/03/22 05:41:21;;;;;;;37.95;22.98;;;;;;;7.04;71.65;102866.34;3580539;40;20076;-62
2022/03/22 05:43:47;;;;;;;37.30;22.58;;;;;;;7.03;71.59;102864.53;3576127;40;20064;-62
2022/03/22 05:46:16;;;;;;;41.97;28.20;;;;;;;6.99;72.26;102868.19;3579886;40;20076;-62
2022/03/22 05:48:43;;;;;;;37.33;24.52;;;;;;;6.92;71.83;102855.81;3581581;40;20060;-62
2022/03/22 05:51:10;;;;;;;36.22;23.75;;;;;;;7.00;72.29;102867.25;3578809;40;20126;-62
2022/03/22 05:53:37;;;;;;;35.45;23.67;;;;;;;7.03;72.21;102869.91;3580734;40;20125;-65
2022/03/22 05:56:03;;;;;;;38.50;22.25;;;;;;;7.04;71.75;102873.44;3581776;40;20056;-66
2022/03/22 05:58:29;;;;;;;40.55;22.80;;;;;;;7.06;71.98;102872.53;3582046;40;20053;-65
2022/03/22 06:00:55;;;;;;;32.40;22.20;;;;;;;6.88;71.62;102830.91;3582649;40;20083;-65
2022/03/22 06:03:21;;;;;;;37.08;23.40;;;;;;;7.02;72.00;102856.56;3581457;40;20326;-65
2022/03/22 06:05:49;;;;;;;33.08;22.77;;;;;;;7.17;71.93;102873.28;3580238;40;20096;-65
2022/03/22 06:08:15;;;;;;;48.72;32.03;;;;;;;7.21;72.20;102874.97;3581213;40;20040;-65
2022/03/22 06:10:40;;;;;;;57.17;32.70;;;;;;;7.27;71.99;102878.50;3582380;40;20047;-65
2022/03/22 06:13:06;;;;;;;43.47;25.83;;;;;;;7.33;72.13;102878.41;3581788;40;20055;-65
2022/03/22 06:15:32;;;;;;;36.72;24.98;;;;;;;7.38;71.80;102876.50;3581074;40;20052;-65
2022/03/22 06:18:05;;;;;;;39.20;25.15;;;;;;;7.42;71.61;102879.13;3582870;40;20048;-65
2022/03/22 06:20:35;;;;;;;36.80;23.65;;;;;;;7.22;71.25;102833.94;3580192;40;20064;-65
2022/03/22 06:23:04;;;;;;;33.97;22.98;;;;;;;7.59;70.77;102884.22;3580128;40;20385;-65
2022/03/22 06:25:31;;;;;;;35.45;22.98;;;;;;;7.70;70.45;102888.50;3581690;40;20121;-65
2022/03/22 06:27:58;;;;;;;33.92;21.95;;;;;;;7.78;70.83;102891.94;3582048;40;20048;-65
2022/03/22 06:30:25;;;;;;;33.00;21.02;;;;;;;7.86;70.05;102881.97;3581320;40;20459;-66
2022/03/22 06:33:00;;;;;;;33.05;23.08;;;;;;;7.99;69.73;102883.53;3580604;40;20064;-66
2022/03/22 06:35:32;;;;;;;38.58;22.10;;;;;;;8.09;69.68;102890.50;3582286;40;20092;-66
2022/03/22 06:38:00;;;;;;;34.53;22.90;;;;;;;8.16;69.05;102882.34;3583042;40;20126;-66
2022/03/22 06:40:29;;;;;;;31.38;22.23;;;;;;;8.30;68.80;102888.31;3581805;40;20126;-66
2022/03/22 06:42:59;;;;;;;36.58;22.38;;;;;;;8.46;68.77;102889.81;3582151;40;20064;-66
2022/03/22 06:45:25;;;;;;;33.88;22.05;;;;;;;8.62;68.17;102889.50;3581776;40;20096;-66
2022/03/22 06:47:51;;;;;;;33.83;23.35;;;;;;;8.76;67.53;102890.09;3580867;40;20374;-66
2022/03/22 06:50:20;;;;;;;35.67;22.85;;;;;;;8.89;68.03;102890.72;3581638;40;20048;-66
2022/03/22 06:52:46;;;;;;;35.08;21.67;;;;;;;9.04;65.88;102896.63;3583166;40;20419;-66
2022/03/22 06:55:18;;;;;;;35.40;21.77;;;;;;;9.13;65.47;102875.88;3582208;40;20075;-65
2022/03/22 06:57:44;;;;;;;36.90;23.40;;;;;;;9.33;64.81;102883.47;3581016;40;20473;-66
2022/03/22 07:00:15;;;;;;;33.63;21.90;;;;;;;9.56;63.65;102896.34;3581838;40;20052;-66
2022/03/22 07:02:40;;;;;;;33.83;22.05;;;;;;;9.71;62.58;102887.91;3582746;40;20429;-66
2022/03/22 07:05:08;;;;;;;34.08;21.70;;;;;;;9.96;61.64;102904.28;3581606;40;20060;-66
2022/03/22 07:07:35;;;;;;;35.20;21.33;;;;;;;10.14;60.71;102908.28;3583070;40;20048;-65
2022/03/22 07:10:01;;;;;;;32.13;20.40;;;;;;;10.23;60.57;102892.78;3582856;40;20044;-64
2022/03/22 07:12:26;;;;;;;30.27;20.42;;;;;;;10.51;60.28;102901.94;3582095;40;20310;-64
2022/03/22 07:14:53;;;;;;;34.55;21.35;;;;;;;10.64;59.32;102897.97;3579595;40;20052;-64
2022/03/22 07:17:19;;;;;;;31.02;21.30;;;;;;;10.80;58.38;102904.66;3583279;40;20437;-64
2022/03/22 07:19:44;;;;;;;31.75;20.63;;;;;;;10.94;57.61;102901.53;3582990;40;20063;-63
2022/03/22 07:22:12;;;;;;;32.42;20.90;;;;;;;11.19;57.62;102906.19;3583153;40;20060;-64
2022/03/22 07:24:38;;;;;;;31.73;21.42;;;;;;;11.44;56.77;102906.28;3581929;40;20169;-64
2022/03/22 07:27:04;;;;;;;34.25;21.15;;;;;;;11.68;55.45;102910.91;3578504;40;20069;-65
2022/03/22 07:29:31;;;;;;;32.17;21.02;;;;;;;11.96;55.94;102910.00;3581151;40;20409;-64
2022/03/22 07:31:58;;;;;;;35.40;21.17;;;;;;;12.10;54.25;102891.53;3582990;40;20416;-65
2022/03/22 07:34:24;;;;;;;28.58;20.20;;;;;;;12.45;53.05;102913.66;3589235;40;20594;-65
2022/03/22 07:36:54;;;;;;;32.63;20.90;;;;;;;12.70;52.79;102908.25;3580344;40;20047;-64
2022/03/22 07:39:22;;;;;;;31.00;20.90;;;;;;;12.99;51.70;102913.41;3583195;40;20067;-65
2022/03/22 07:41:49;;;;;;;34.10;20.50;;;;;;;13.22;50.92;102912.53;3583765;40;20080;-64
2022/03/22 07:44:15;;;;;;;32.25;21.65;;;;;;;13.40;49.60;102915.44;3581863;40;20065;-64
2022/03/22 07:46:43;;;;;;;33.05;21.83;;;;;;;13.57;49.24;102917.47;3581172;40;20371;-64
2022/03/22 07:54:41;;;;;;;29.88;20.67;;;;;;;14.17;47.70;102913.97;3580516;40;20128;-64
2022/03/22 07:57:07;;;;;;;33.90;20.10;;;;;;;14.37;47.57;102905.00;3580860;40;20048;-65
2022/03/22 07:59:33;;;;;;;29.52;20.92;;;;;;;14.38;46.01;102879.69;3581870;40;20315;-64
2022/03/22 08:02:00;;;;;;;30.83;21.38;;;;;;;14.73;46.01;102916.97;3582725;40;20335;-64
2022/03/22 08:04:25;;;;;;;29.77;20.40;;;;;;;14.93;45.50;102916.91;3581509;40;20052;-65
2022/03/22 08:06:51;;;;;;;28.88;19.38;;;;;;;15.09;44.94;102914.38;3582580;40;20056;-65
2022/03/22 08:09:16;;;;;;;29.73;20.45;;;;;;;15.37;44.75;102913.06;3582274;40;20048;-63
2022/03/22 08:11:42;;;;;;;27.40;19.88;;;;;;;15.65;44.87;102913.44;3582118;40;20101;-63
2022/03/22 08:14:09;;;;;;;30.10;21.02;;;;;;;15.82;43.54;102912.63;3580792;40;20098;-62
2022/03/22 08:16:38;;;;;;;30.70;21.35;;;;;;;16.08;44.01;102918.53;3579918;40;20058;-63
2022/03/22 08:19:06;;;;;;;28.92;21.10;;;;;;;16.35;42.87;102918.97;3577846;40;20044;-64
2022/03/22 08:21:34;;;;;;;30.00;20.38;;;;;;;16.56;41.88;102917.81;3578380;40;20069;-63
2022/03/22 08:24:00;;;;;;;33.13;20.45;;;;;;;16.67;41.64;102922.66;3579439;40;20084;-62
2022/03/22 08:26:27;;;;;;;25.90;18.92;;;;;;;16.88;41.36;102920.66;3578385;40;20064;-63
2022/03/22 08:28:55;;;;;;;34.30;20.90;;;;;;;17.13;39.91;102922.88;3575289;40;20061;-63
2022/03/22 08:31:21;;;;;;;28.85;19.92;;;;;;;17.21;39.84;102920.59;3579586;40;20055;-63
2022/03/22 08:33:47;;;;;;;30.98;19.77;;;;;;;17.35;39.90;102928.88;3575397;40;20076;-63
2022/03/22 08:36:13;;;;;;;27.00;19.60;;;;;;;17.22;38.55;102892.47;3582831;40;20467;-63
2022/03/22 08:38:38;;;;;;;32.00;19.73;;;;;;;17.56;38.42;102925.84;3583775;40;20068;-63
2022/03/22 08:41:04;;;;;;;31.77;22.25;;;;;;;17.76;37.28;102920.16;3581325;40;20143;-63
2022/03/22 08:43:31;;;;;;;27.67;19.58;;;;;;;17.93;36.82;102924.63;3577451;40;20060;-65
2022/03/22 08:45:57;;;;;;;27.63;19.25;;;;;;;18.12;36.52;102923.53;3577041;40;20167;-63
2022/03/22 08:48:23;;;;;;;28.45;20.17;;;;;;;18.29;36.99;102929.69;3581120;40;20056;-62
2022/03/22 08:50:51;;;;;;;33.85;20.60;;;;;;;18.49;35.57;102927.56;3581657;40;20383;-62
2022/03/22 08:53:20;;;;;;;28.30;20.15;;;;;;;18.63;34.91;102924.88;3580937;40;20261;-62
2022/03/22 08:55:47;;;;;;;27.08;19.25;;;;;;;18.60;36.55;102919.63;3577131;40;20088;-62
2022/03/22 08:58:15;;;;;;;34.15;20.80;;;;;;;18.71;36.10;102921.66;3581084;40;20376;-62
2022/03/22 09:00:41;;;;;;;26.83;20.20;;;;;;;18.78;36.34;102901.28;3581902;40;20046;-63
2022/03/22 09:03:11;;;;;;;26.08;19.90;;;;;;;19.01;35.71;102917.03;3581977;40;20375;-63
2022/03/22 09:08:22;;;;;;;25.65;20.85;;;;;;;19.21;33.96;102876.69;3582271;40;20464;-63
2022/03/22 09:10:50;;;;;;;28.63;20.70;;;;;;;19.48;35.27;102918.50;3582846;40;20052;-63
2022/03/22 09:13:16;;;;;;;27.30;20.70;;;;;;;19.43;34.29;102926.09;3579342;40;20055;-63
2022/03/22 09:15:43;;;;;;;29.90;20.38;;;;;;;19.24;34.11;102877.34;3580362;40;20082;-62
2022/03/22 09:18:14;;;;;;;25.77;19.92;;;;;;;19.52;33.57;102918.31;3581998;40;20056;-62
2022/03/22 09:20:43;;;;;;;33.67;19.77;;;;;;;19.58;33.82;102912.44;3582797;40;20053;-63
2022/03/22 09:23:11;;;;;;;26.13;20.23;;;;;;;19.74;34.27;102906.88;3579421;40;20060;-62
2022/03/22 09:25:37;;;;;;;28.23;20.20;;;;;;;20.05;32.67;102919.31;3581450;40;20048;-63
2022/03/22 09:28:05;;;;;;;27.92;20.60;;;;;;;20.09;33.00;102916.25;3579975;40;20126;-62
2022/03/22 09:30:33;;;;;;;26.92;20.63;;;;;;;20.14;31.47;102915.94;3582506;40;20060;-63
2022/03/22 09:32:58;;;;;;;30.40;20.13;;;;;;;20.20;32.22;102914.63;3580530;40;20040;-62
2022/03/22 09:35:24;;;;;;;27.55;21.08;;;;;;;20.31;31.74;102912.91;3581524;40;20406;-62
2022/03/22 09:37:50;;;;;;;27.92;20.75;;;;;;;20.38;32.12;102905.13;3582769;40;20070;-62
2022/03/22 09:40:18;;;;;;;28.60;19.30;;;;;;;20.47;31.84;102896.28;3581414;40;20487;-62
2022/03/22 09:42:46;;;;;;;27.83;19.90;;;;;;;20.60;30.42;102915.47;3583045;40;20058;-62
2022/03/22 09:45:15;;;;;;;29.77;19.67;;;;;;;20.70;30.62;102911.06;3580046;40;20063;-62
2022/03/22 09:47:42;;;;;;;31.88;20.27;;;;;;;20.75;31.66;102903.44;3579634;40;20056;-63
2022/03/22 09:50:10;;;;;;;26.65;20.23;;;;;;;20.90;31.63;102906.03;3583435;40;20129;-63
2022/03/22 09:52:37;;;;;;;29.65;20.85;;;;;;;21.04;31.88;102904.03;3582368;40;20068;-63
2022/03/22 09:55:06;;;;;;;28.73;20.83;;;;;;;21.16;31.07;102905.00;3582722;40;20107;-64
2022/03/22 09:57:32;;;;;;;33.20;22.30;;;;;;;21.27;31.33;102906.94;3581879;40;20064;-63
2022/03/22 09:59:58;;;;;;;34.67;21.02;;;;;;;21.19;30.23;102909.38;3581482;40;20048;-63
2022/03/22 10:02:29;;;;;;;27.55;20.20;;;;;;;21.21;29.81;102902.78;3579429;40;20129;-64
2022/03/22 10:04:55;;;;;;;30.75;22.30;;;;;;;21.14;30.46;102895.16;3583239;40;20048;-63
2022/03/22 10:07:23;;;;;;;26.88;20.42;;;;;;;21.26;30.72;102902.47;3582267;40;20056;-63
2022/03/22 10:10:05;;;;;;;32.78;22.05;;;;;;;21.40;29.58;102910.53;3579956;40;20055;-64
2022/03/22 10:12:32;;;;;;;33.75;21.30;;;;;;;21.52;29.94;102903.28;3581955;40;20060;-63
2022/03/22 10:15:12;;;;;;;26.05;19.98;;;;;;;21.55;29.75;102898.44;3581296;40;20134;-63
2022/03/22 10:17:38;;;;;;;31.70;22.17;;;;;;;21.67;29.58;102898.50;3581477;40;20415;-64
2022/03/22 10:20:07;;;;;;;30.27;22.83;;;;;;;21.59;29.93;102895.47;3582664;40;20409;-63
2022/03/22 10:22:36;;;;;;;29.48;21.48;;;;;;;21.58;30.15;102896.47;3601232;23;20065;-61
2022/03/22 10:25:05;;;;;;;28.00;21.13;;;;;;;21.89;30.21;102889.53;3588972;40;20059;-61
2022/03/22 10:27:38;;;;;;;33.50;21.80;;;;;;;21.87;29.69;102889.63;3590329;39;21396;-61
2022/03/22 10:30:08;;;;;;;31.80;22.38;;;;;;;21.99;28.87;102893.28;3589680;39;20081;-61
2022/03/22 10:32:39;;;;;;;31.42;22.20;;;;;;;22.06;29.57;102894.56;3584856;39;20411;-61
2022/03/22 10:35:26;;;;;;;32.85;21.13;;;;;;;22.31;28.40;102890.81;3579858;40;20044;-62
2022/03/22 10:38:08;;;;;;;29.75;21.10;;;;;;;22.48;27.28;102873.88;3582385;40;20059;-61
2022/03/22 10:40:41;;;;;;;31.00;22.05;;;;;;;22.62;27.71;102880.16;3579742;40;20064;-61
2022/03/22 10:43:14;;;;;;;28.60;20.10;;;;;;;22.87;27.59;102879.03;3579445;40;20064;-61
2022/03/22 10:45:48;;;;;;;;;;;;;;;22.86;27.63;102875.38;3578332;40;20068;-62
2022/03/22 10:48:33;;;;;;;29.05;20.45;;;;;;;22.81;27.30;102866.69;3578240;40;19963;-62
2022/03/22 10:51:01;;;;;;;28.17;20.23;;;;;;;22.97;26.29;102871.81;3579362;40;20048;-61
2022/03/22 10:53:31;;;;;;;29.50;20.02;;;;;;;22.89;26.07;102875.13;3578665;40;20075;-61
2022/03/22 10:56:02;;;;;;;28.92;20.90;;;;;;;22.98;25.67;102872.69;3579008;40;20057;-61
2022/03/22 10:58:30;;;;;;;26.73;21.33;;;;;;;22.99;26.78;102877.16;3582016;40;20059;-62
2022/03/22 11:00:59;;;;;;;29.40;21.58;;;;;;;23.06;26.70;102867.44;3582613;40;20064;-62
2022/03/22 11:03:30;;;;;;;28.60;21.27;;;;;;;23.19;26.25;102879.16;3581526;40;20065;-62
2022/03/22 11:06:02;;;;;;;27.55;20.40;;;;;;;23.30;25.75;102878.25;3581693;40;20056;-62
2022/03/22 11:08:27;;;;;;;38.15;29.13;;;;;;;23.22;25.75;102867.91;3582210;40;20385;-61
2022/03/22 11:10:54;;;;;;;27.17;21.20;;;;;;;23.28;25.53;102850.94;3582179;40;20056;-61
2022/03/22 11:13:21;;;;;;;26.00;18.50;;;;;;;23.47;26.50;102872.22;3580161;40;20055;-62
2022/03/22 11:15:50;;;;;;;30.20;20.15;;;;;;;23.58;25.73;102869.41;3578276;40;20056;-61
2022/03/22 11:18:20;;;;;;;25.08;19.42;;;;;;;23.60;25.06;102872.91;3579191;40;20047;-61
2022/03/22 11:20:57;;;;;;;24.50;18.55;;;;;;;23.81;25.50;102872.97;3575438;40;20089;-62
2022/03/22 11:23:26;;;;;;;25.48;17.13;;;;;;;23.88;25.39;102864.19;3578052;40;20137;-62
2022/03/22 11:25:52;;;;;;;22.80;17.63;;;;;;;23.79;25.35;102858.53;3579980;40;20676;-62
2022/03/22 11:28:23;;;;;;;25.48;18.13;;;;;;;23.88;25.70;102861.47;3580794;40;20149;-62
2022/03/22 11:30:51;;;;;;;27.00;19.08;;;;;;;23.89;25.03;102852.22;3581090;40;20064;-62
2022/03/22 11:36:21;;;;;;;29.50;19.33;;;;;;;23.98;25.44;102859.69;3582925;40;20117;-61
2022/03/22 11:38:51;;;;;;;27.75;18.65;;;;;;;24.13;25.29;102849.22;3583224;40;20126;-61
2022/03/22 11:44:36;;;;;;;23.50;17.75;;;;;;;24.37;25.12;102848.94;3579686;40;20048;-61
2022/03/22 11:47:07;;;;;;;23.55;18.02;;;;;;;24.44;24.74;102841.91;3580568;40;20044;-61
2022/03/22 11:49:57;;;;;;;26.00;18.17;;;;;;;24.54;24.32;102845.56;3581263;40;20060;-61